Surprise, AZ

10:28 PM MST on December 17, 2014 (GMT -0700)
Luke Air Force Base | Change Station
CLOSE
Current Station
Airport
Location: Glendale Luke AFB,
Elevation: 1089 ft
Nearby Weather Stations

Elev 1089 ft 33.53 °N, 112.38 °W | Updated 30 minutes ago

Partly Cloudy
Partly Cloudy
49 °F
Feels Like 49 °F
N
6
Wind Variable Wind from NW

Today
High -- | Low -- °F
--% Chance of Precip.
Yesterday
High -- | Low -- °F
Precip. -- in
7:27 AM 5:23 PM
Waning Crescent, 17% visible
Pressure 30.12 in
Visibility 10.0 miles
Clouds Few 4700 ft
Dew Point 49 °F
Humidity 100%
Rainfall 0.01 in
Snow Depth Not available.
UV 0 out of 12
Pollen 4.70 out of 12
Air Quality Not available.
Flu Activity Not available.
METAR KLUF 180458Z AUTO 32005KT 10SM FEW047 09/09 A3012 RMK AO2 SLP199 T00920092 $

More Conditions Fewer Conditions

Pressure 30.12 in
Visibility 10.0 miles
Clouds Few 4700 ft
Dew Point 49 °F
Humidity 100%
Rainfall 0.01 in
Snow Depth Not available.
UV 0 out of 12
Pollen 4.70 out of 12
Air Quality Not available.
Flu Activity Not available.
METAR KLUF 180458Z AUTO 32005KT 10SM FEW047 09/09 A3012 RMK AO2 SLP199 T00920092 $

More Conditions Fewer Conditions

10-Day Weather Forecast

Almanac

Astronomy

Dec. 17, 2014 Rise Set
Actual Time
Civil Twilight
Nautical Twilight
Astronomical Twilight
Moon
Length of Visible Light
Length of Day
Tomorrow will be .
, % of the Moon is Illuminated

Today's Extremes

State Highs State Lows

Community

WunderPhotos

Upload Photos

1,778,894 photos uploaded!

WunderBlogs® & News

Nearby

Air Quality

  Air Quality AQ Index Pollutant
Not available.

Snow Depth

Station Depth Elevation

Earthquake Activity

City Distance Mag. Time & Date
Minimum magnitude displayed is 2.5.

Coastal Water Temperatures

Place Temperature

Nearby Weather Stations